Time,TemperatureF,DewpointF,PressureIn,WindDirection,WindDirectionDegrees,WindSpeedMPH,WindSpeedGustMPH,Humidity,HourlyPrecipIn,Conditions,Clouds,dailyrainin,SolarRadiationWatts/m^2,SoftwareType,DateUTC
2013-06-19 00:22:00,63.0,55.0,-100.00,SSE,162,10.0,13.0,75,0.00,,,0.00,0.000000,,2013-06-19 05:22:00,
2013-06-19 00:32:00,63.0,55.0,-100.00,SSE,162,10.0,13.0,75,0.00,,,0.00,0.000000,,2013-06-19 05:32:00,
2013-06-19 00:42:00,63.0,55.0,-100.00,SSE,162,10.0,13.0,75,0.00,,,0.00,0.000000,,2013-06-19 05:42:00,
2013-06-19 00:52:00,63.0,55.0,-100.00,SSE,162,10.0,13.0,75,0.00,,,0.00,0.000000,,2013-06-19 05:52:00,
2013-06-19 01:22:00,63.0,56.0,-100.00,South,171,11.0,15.0,79,0.00,,,0.00,0.000000,,2013-06-19 06:22:00,
2013-06-19 01:33:00,63.0,56.0,-100.00,South,171,11.0,15.0,79,0.00,,,0.00,0.000000,,2013-06-19 06:33:00,
2013-06-19 01:42:00,63.0,56.0,-100.00,South,171,11.0,15.0,79,0.00,,,0.00,0.000000,,2013-06-19 06:42:00,
2013-06-19 01:52:00,63.0,56.0,-100.00,South,171,11.0,15.0,79,0.00,,,0.00,0.000000,,2013-06-19 06:52:00,
2013-06-19 02:22:00,62.0,55.0,-100.00,South,178,11.0,15.0,79,0.00,,,0.00,0.000000,,2013-06-19 07:22:00,
2013-06-19 02:33:00,62.0,55.0,-100.00,South,178,11.0,15.0,79,0.00,,,0.00,0.000000,,2013-06-19 07:33:00,
2013-06-19 02:43:00,62.0,55.0,-100.00,South,178,11.0,15.0,79,0.00,,,0.00,0.000000,,2013-06-19 07:43:00,
2013-06-19 02:53:00,62.0,55.0,-100.00,South,178,11.0,15.0,79,0.00,,,0.00,0.000000,,2013-06-19 07:53:00,
2013-06-19 03:22:00,61.0,56.0,-100.00,South,176,10.0,13.0,83,0.00,,,0.00,0.000000,,2013-06-19 08:22:00,
2013-06-19 03:33:00,61.0,56.0,-100.00,South,176,10.0,13.0,83,0.00,,,0.00,0.000000,,2013-06-19 08:33:00,
2013-06-19 03:43:00,61.0,56.0,-100.00,South,176,10.0,13.0,83,0.00,,,0.00,0.000000,,2013-06-19 08:43:00,
2013-06-19 03:53:00,61.0,56.0,-100.00,South,176,10.0,13.0,83,0.00,,,0.00,0.000000,,2013-06-19 08:53:00,
2013-06-19 04:22:00,61.0,56.0,-100.00,South,171,10.0,13.0,84,0.00,,,0.00,0.000000,,2013-06-19 09:22:00,
2013-06-19 04:34:00,61.0,56.0,-100.00,South,171,10.0,13.0,84,0.00,,,0.00,0.000000,,2013-06-19 09:34:00,
2013-06-19 04:43:00,61.0,56.0,-100.00,South,171,10.0,13.0,84,0.00,,,0.00,0.000000,,2013-06-19 09:43:00,
2013-06-19 04:53:00,61.0,56.0,-100.00,South,171,10.0,13.0,84,0.00,,,0.00,0.000000,,2013-06-19 09:53:00,
2013-06-19 05:22:00,61.0,57.0,-100.00,SSW,194,6.0,11.0,86,0.00,,,0.00,0.000000,,2013-06-19 10:22:00,
2013-06-19 05:33:00,61.0,57.0,-100.00,SSW,194,6.0,11.0,86,0.00,,,0.00,0.000000,,2013-06-19 10:33:00,
2013-06-19 05:42:00,61.0,57.0,-100.00,SSW,194,6.0,11.0,86,0.00,,,0.00,0.000000,,2013-06-19 10:42:00,
2013-06-19 05:52:00,61.0,57.0,-100.00,SSW,194,6.0,11.0,86,0.00,,,0.00,0.000000,,2013-06-19 10:52:00,
2013-06-19 06:22:00,60.0,56.0,-100.00,SSW,199,6.0,9.0,88,0.00,,,0.00,7.000000,,2013-06-19 11:22:00,
2013-06-19 06:33:00,60.0,56.0,-100.00,SSW,199,6.0,9.0,88,0.00,,,0.00,7.000000,,2013-06-19 11:33:00,
2013-06-19 06:42:00,60.0,56.0,-100.00,SSW,199,6.0,9.0,88,0.00,,,0.00,7.000000,,2013-06-19 11:42:00,
2013-06-19 06:54:00,60.0,56.0,-100.00,SSW,199,6.0,9.0,88,0.00,,,0.00,7.000000,,2013-06-19 11:54:00,
2013-06-19 07:22:00,63.0,60.0,-100.00,South,185,8.0,11.0,89,0.00,,,0.00,111.000000,,2013-06-19 12:22:00,
2013-06-19 07:34:00,63.0,60.0,-100.00,South,185,8.0,11.0,89,0.00,,,0.00,111.000000,,2013-06-19 12:34:00,
2013-06-19 07:44:00,63.0,60.0,-100.00,South,185,8.0,11.0,89,0.00,,,0.00,111.000000,,2013-06-19 12:44:00,
2013-06-19 07:52:00,63.0,60.0,-100.00,South,185,8.0,11.0,89,0.00,,,0.00,111.000000,,2013-06-19 12:52:00,
2013-06-19 08:22:00,66.0,61.0,-100.00,South,191,9.0,11.0,84,0.00,,,0.00,226.000000,,2013-06-19 13:22:00,
2013-06-19 08:33:00,66.0,61.0,-100.00,South,191,9.0,11.0,84,0.00,,,0.00,226.000000,,2013-06-19 13:33:00,
2013-06-19 08:42:00,66.0,61.0,-100.00,South,191,9.0,11.0,84,0.00,,,0.00,226.000000,,2013-06-19 13:42:00,
2013-06-19 08:53:00,66.0,61.0,-100.00,South,191,9.0,11.0,84,0.00,,,0.00,226.000000,,2013-06-19 13:53:00,
2013-06-19 09:22:00,68.0,61.0,-100.00,South,184,9.0,11.0,79,0.00,,,0.00,269.000000,,2013-06-19 14:22:00,
2013-06-19 09:33:00,68.0,61.0,-100.00,South,184,9.0,11.0,79,0.00,,,0.00,269.000000,,2013-06-19 14:33:00,
2013-06-19 09:43:00,68.0,61.0,-100.00,South,184,9.0,11.0,79,0.00,,,0.00,269.000000,,2013-06-19 14:43:00,
2013-06-19 09:52:00,68.0,61.0,-100.00,South,184,9.0,11.0,79,0.00,,,0.00,269.000000,,2013-06-19 14:52:00,
2013-06-19 10:22:00,74.0,62.0,-100.00,SSE,166,10.0,13.0,66,0.00,,,0.00,199.000000,,2013-06-19 15:22:00,
2013-06-19 10:33:00,74.0,62.0,-100.00,SSE,166,10.0,13.0,66,0.00,,,0.00,199.000000,,2013-06-19 15:33:00,
2013-06-19 10:42:00,74.0,62.0,-100.00,SSE,166,10.0,13.0,66,0.00,,,0.00,199.000000,,2013-06-19 15:42:00,
2013-06-19 10:53:00,74.0,62.0,-100.00,SSE,166,10.0,13.0,66,0.00,,,0.00,199.000000,,2013-06-19 15:53:00,
2013-06-19 11:22:00,78.0,59.0,-100.00,South,176,13.0,16.0,52,0.00,,,0.00,330.000000,,2013-06-19 16:22:00,
2013-06-19 11:34:00,78.0,59.0,-100.00,South,176,13.0,16.0,52,0.00,,,0.00,330.000000,,2013-06-19 16:34:00,
2013-06-19 11:43:00,78.0,59.0,-100.00,South,176,13.0,16.0,52,0.00,,,0.00,330.000000,,2013-06-19 16:43:00,
2013-06-19 11:52:00,78.0,59.0,-100.00,South,176,13.0,16.0,52,0.00,,,0.00,330.000000,,2013-06-19 16:52:00,
2013-06-19 12:22:00,79.0,58.0,-100.00,South,178,13.0,17.0,48,0.00,,,0.00,870.000000,,2013-06-19 17:22:00,
2013-06-19 12:34:00,79.0,58.0,-100.00,South,178,13.0,17.0,48,0.00,,,0.00,870.000000,,2013-06-19 17:34:00,
2013-06-19 12:43:00,79.0,58.0,-100.00,South,178,13.0,17.0,48,0.00,,,0.00,870.000000,,2013-06-19 17:43:00,
2013-06-19 12:53:00,79.0,58.0,-100.00,South,178,13.0,17.0,48,0.00,,,0.00,870.000000,,2013-06-19 17:53:00,
2013-06-19 13:24:00,81.0,61.0,-100.00,South,174,14.0,20.0,50,0.00,,,0.00,1100.000000,,2013-06-19 18:24:00,
2013-06-19 13:33:00,81.0,61.0,-100.00,South,174,14.0,20.0,50,0.00,,,0.00,1100.000000,,2013-06-19 18:33:00,
2013-06-19 13:44:00,81.0,61.0,-100.00,South,174,14.0,20.0,50,0.00,,,0.00,1100.000000,,2013-06-19 18:44:00,
2013-06-19 13:53:00,81.0,61.0,-100.00,South,174,14.0,20.0,50,0.00,,,0.00,1100.000000,,2013-06-19 18:53:00,
2013-06-19 14:22:00,82.0,61.0,-100.00,South,185,14.0,19.0,50,0.00,,,0.00,983.000000,,2013-06-19 19:22:00,
2013-06-19 14:32:00,82.0,61.0,-100.00,South,185,14.0,19.0,50,0.00,,,0.00,983.000000,,2013-06-19 19:32:00,
2013-06-19 14:43:00,82.0,61.0,-100.00,South,185,14.0,19.0,50,0.00,,,0.00,983.000000,,2013-06-19 19:43:00,
2013-06-19 14:52:00,82.0,61.0,-100.00,South,185,14.0,19.0,50,0.00,,,0.00,983.000000,,2013-06-19 19:52:00,
2013-06-19 15:22:00,81.0,56.0,-100.00,South,188,15.0,20.0,43,0.00,,,0.00,1062.000000,,2013-06-19 20:22:00,
2013-06-19 15:33:00,81.0,56.0,-100.00,South,188,15.0,20.0,43,0.00,,,0.00,1062.000000,,2013-06-19 20:33:00,
2013-06-19 15:42:00,81.0,56.0,-100.00,South,188,15.0,20.0,43,0.00,,,0.00,1062.000000,,2013-06-19 20:42:00,
2013-06-19 15:52:00,81.0,56.0,-100.00,South,188,15.0,20.0,43,0.00,,,0.00,1062.000000,,2013-06-19 20:52:00,
2013-06-19 16:22:00,83.0,56.0,-100.00,South,169,13.0,22.0,40,0.00,,,0.00,989.000000,,2013-06-19 21:22:00,
2013-06-19 16:33:00,83.0,56.0,-100.00,South,169,13.0,22.0,40,0.00,,,0.00,989.000000,,2013-06-19 21:33:00,
2013-06-19 16:44:00,83.0,56.0,-100.00,South,169,13.0,22.0,40,0.00,,,0.00,989.000000,,2013-06-19 21:44:00,
2013-06-19 16:52:00,83.0,56.0,-100.00,South,169,13.0,22.0,40,0.00,,,0.00,989.000000,,2013-06-19 21:52:00,
2013-06-19 17:22:00,82.0,57.0,-100.00,South,169,13.0,20.0,43,0.00,,,0.00,660.000000,,2013-06-19 22:22:00,
2013-06-19 17:34:00,82.0,57.0,-100.00,South,169,13.0,20.0,43,0.00,,,0.00,660.000000,,2013-06-19 22:34:00,
2013-06-19 17:43:00,82.0,57.0,-100.00,South,169,13.0,20.0,43,0.00,,,0.00,660.000000,,2013-06-19 22:43:00,
2013-06-19 17:53:00,82.0,57.0,-100.00,South,169,13.0,20.0,43,0.00,,,0.00,660.000000,,2013-06-19 22:53:00,
2013-06-19 18:23:00,83.0,59.0,-100.00,SSE,162,12.0,18.0,44,0.00,,,0.00,507.000000,,2013-06-19 23:23:00,
2013-06-19 18:33:00,83.0,59.0,-100.00,SSE,162,12.0,18.0,44,0.00,,,0.00,507.000000,,2013-06-19 23:33:00,
2013-06-19 18:43:00,83.0,59.0,-100.00,SSE,162,12.0,18.0,44,0.00,,,0.00,507.000000,,2013-06-19 23:43:00,
2013-06-19 18:52:00,83.0,59.0,-100.00,SSE,162,12.0,18.0,44,0.00,,,0.00,507.000000,,2013-06-19 23:52:00,
2013-06-19 19:22:00,81.0,55.0,-100.00,SE,143,13.0,17.0,41,0.00,,,-99.99,416.000000,,2013-06-20 00:22:00,
2013-06-19 19:33:00,81.0,55.0,-100.00,SE,143,13.0,17.0,41,0.00,,,-99.99,416.000000,,2013-06-20 00:33:00,
2013-06-19 19:44:00,81.0,55.0,-100.00,SE,143,13.0,17.0,41,0.00,,,-99.99,416.000000,,2013-06-20 00:44:00,
2013-06-19 19:52:00,81.0,55.0,-100.00,SE,143,13.0,17.0,41,0.00,,,-99.99,416.000000,,2013-06-20 00:52:00,
2013-06-19 20:22:00,76.0,57.0,-100.00,SE,139,9.0,12.0,52,0.00,,,0.00,146.000000,,2013-06-20 01:22:00,
2013-06-19 20:33:00,76.0,57.0,-100.00,SE,139,9.0,12.0,52,0.00,,,0.00,146.000000,,2013-06-20 01:33:00,
2013-06-19 20:44:00,76.0,57.0,-100.00,SE,139,9.0,12.0,52,0.00,,,0.00,146.000000,,2013-06-20 01:44:00,
2013-06-19 20:52:00,76.0,57.0,-100.00,SE,139,9.0,12.0,52,0.00,,,0.00,146.000000,,2013-06-20 01:52:00,
2013-06-19 21:24:00,74.0,59.0,-100.00,SSE,151,8.0,11.0,59,0.00,,,0.00,69.000000,,2013-06-20 02:24:00,
2013-06-19 21:34:00,74.0,59.0,-100.00,SSE,151,8.0,11.0,59,0.00,,,0.00,69.000000,,2013-06-20 02:34:00,
2013-06-19 21:43:00,74.0,59.0,-100.00,SSE,151,8.0,11.0,59,0.00,,,0.00,69.000000,,2013-06-20 02:43:00,
2013-06-19 21:52:00,74.0,59.0,-100.00,SSE,151,8.0,11.0,59,0.00,,,0.00,69.000000,,2013-06-20 02:52:00,
2013-06-19 22:22:00,73.0,63.0,-100.00,SSE,148,7.0,9.0,70,0.00,,,0.00,3.000000,,2013-06-20 03:22:00,
2013-06-19 22:33:00,73.0,63.0,-100.00,SSE,148,7.0,9.0,70,0.00,,,0.00,3.000000,,2013-06-20 03:33:00,
2013-06-19 22:43:00,73.0,63.0,-100.00,SSE,148,7.0,9.0,70,0.00,,,0.00,3.000000,,2013-06-20 03:43:00,
2013-06-19 22:53:00,73.0,63.0,-100.00,SSE,148,7.0,9.0,70,0.00,,,0.00,3.000000,,2013-06-20 03:53:00,
2013-06-19 23:22:00,72.0,63.0,-100.00,SE,143,10.0,12.0,73,0.00,,,0.00,0.000000,,2013-06-20 04:22:00,
2013-06-19 23:34:00,72.0,63.0,-100.00,SE,143,10.0,12.0,73,0.00,,,0.00,0.000000,,2013-06-20 04:34:00,
2013-06-19 23:43:00,72.0,63.0,-100.00,SE,143,10.0,12.0,73,0.00,,,0.00,0.000000,,2013-06-20 04:43:00,
2013-06-19 23:53:00,72.0,63.0,-100.00,SE,143,10.0,12.0,73,0.00,,,0.00,0.000000,,2013-06-20 04:53:00,